Time;durP1;ratioP1;P1;durP2;ratioP2;P2;SDS_P1;SDS_P2;PMS_P1;PMS_P2;Temp;Humidity;BMP_temperature;BMP_pressure;BME280_temperature;BME280_humidity;BME280_pressure;Samples;Min_cycle;Max_cycle;Signal;HPM_P1;HPM_P2
2021/08/14 00:01:30;;;;;;;3.72;3.20;;;;;;;28.59;43.02;95605.53;5023805;28;20130;-75
2021/08/14 00:03:55;;;;;;;3.58;3.28;;;;;;;28.60;42.77;95623.53;5027736;28;20494;-74
2021/08/14 00:06:21;;;;;;;3.65;3.10;;;;;;;28.60;42.28;95629.03;5025120;28;20025;-75
2021/08/14 00:08:46;;;;;;;3.72;3.03;;;;;;;28.60;42.65;95607.75;5027606;28;20026;-73
2021/08/14 00:11:12;;;;;;;3.30;3.00;;;;;;;28.61;42.49;95624.97;5026273;28;20021;-75
2021/08/14 00:13:37;;;;;;;3.70;2.85;;;;;;;28.59;43.12;95622.03;5027604;28;20512;-75
2021/08/14 00:16:04;;;;;;;3.20;2.88;;;;;;;28.59;43.07;95611.03;5027278;28;20027;-75
2021/08/14 00:18:29;;;;;;;3.22;2.92;;;;;;;28.56;42.68;95623.81;5026105;28;20064;-74
2021/08/14 00:20:54;;;;;;;3.63;2.90;;;;;;;28.60;43.20;95626.28;5027414;28;20032;-74
2021/08/14 00:23:20;;;;;;;3.72;3.00;;;;;;;28.60;42.91;95634.53;5025403;28;20056;-75
2021/08/14 00:25:45;;;;;;;3.58;2.92;;;;;;;28.61;42.21;95635.97;5027221;28;20458;-75
2021/08/14 00:28:11;;;;;;;3.97;2.90;;;;;;;28.61;42.16;95635.97;5026372;28;20028;-75
2021/08/14 00:30:36;;;;;;;4.03;3.00;;;;;;;28.61;42.43;95635.97;5025912;28;20788;-75
2021/08/14 00:33:02;;;;;;;3.22;2.83;;;;;;;28.61;42.98;95646.97;5027205;28;20409;-75
2021/08/14 00:35:28;;;;;;;3.80;2.97;;;;;;;28.61;43.13;95646.97;5026435;28;20044;-76
2021/08/14 00:37:53;;;;;;;3.33;2.35;;;;;;;28.61;42.35;95652.47;5026979;28;20029;-74
2021/08/14 00:40:19;;;;;;;3.72;3.08;;;;;;;28.57;42.96;95646.56;5025640;28;20040;-74
2021/08/14 00:42:44;;;;;;;4.07;3.60;;;;;;;28.61;43.10;95655.22;5025602;28;20033;-73
2021/08/14 00:45:10;;;;;;;3.97;3.10;;;;;;;28.60;42.22;95651.00;5026811;28;20462;-74
2021/08/14 00:47:40;;;;;;;3.50;2.85;;;;;;;28.59;42.95;95664.00;5024356;28;20040;-74
2021/08/14 00:50:05;;;;;;;3.70;3.00;;;;;;;28.60;42.88;95656.50;5025599;28;20128;-75
2021/08/14 00:52:31;;;;;;;3.80;3.20;;;;;;;28.60;43.22;95656.50;5024262;28;20033;-75
2021/08/14 00:54:56;;;;;;;3.67;3.08;;;;;;;28.59;42.54;95660.50;5039534;28;20037;-76
2021/08/14 00:57:22;;;;;;;3.88;3.20;;;;;;;28.59;42.58;95660.50;5025094;28;20037;-74
2021/08/14 00:59:48;;;;;;;3.53;2.92;;;;;;;28.58;43.24;95653.53;5025053;28;20482;-74
2021/08/14 01:02:14;;;;;;;3.92;3.08;;;;;;;28.59;43.14;95638.53;5006087;28;20483;-75
2021/08/14 01:04:40;;;;;;;3.50;2.90;;;;;;;28.58;43.10;95648.78;5026057;28;20042;-75
2021/08/14 01:07:05;;;;;;;3.50;3.13;;;;;;;28.58;42.99;95650.78;5041205;28;20141;-74
2021/08/14 01:09:31;;;;;;;3.30;3.00;;;;;;;28.60;42.54;95645.50;5026153;28;20098;-74
2021/08/14 01:11:58;;;;;;;3.90;3.20;;;;;;;28.60;42.95;95651.00;5026424;28;20018;-73
2021/08/14 01:14:23;;;;;;;4.50;3.22;;;;;;;28.59;42.83;95644.75;5025096;28;20162;-74
2021/08/14 01:16:49;;;;;;;3.83;3.17;;;;;;;28.60;42.62;95645.50;5026443;28;20025;-75
2021/08/14 01:19:14;;;;;;;3.70;2.95;;;;;;;28.60;42.78;95640.00;5040151;28;20026;-74
2021/08/14 01:21:47;;;;;;;3.78;3.20;;;;;;;28.61;43.05;95636.75;5026156;28;20025;-76
2021/08/14 01:24:12;;;;;;;3.50;2.88;;;;;;;28.60;42.53;95634.53;5024509;28;20052;-75
2021/08/14 01:26:41;;;;;;;3.50;3.13;;;;;;;28.58;42.43;95648.03;5025713;28;20044;-75
2021/08/14 01:29:07;;;;;;;3.72;2.92;;;;;;;28.61;42.78;95635.97;5023735;28;20028;-75
2021/08/14 01:31:32;;;;;;;3.80;3.40;;;;;;;28.61;42.67;95624.97;5025797;28;20127;-75
2021/08/14 01:33:58;;;;;;;3.75;3.10;;;;;;;28.60;42.81;95631.78;5026341;28;20017;-74
2021/08/14 01:36:23;;;;;;;3.33;2.90;;;;;;;28.59;43.20;95627.53;5026007;28;20083;-74
2021/08/14 01:39:00;;;;;;;4.03;3.30;;;;;;;28.60;42.90;95629.03;5023907;28;20040;-74
2021/08/14 01:41:26;;;;;;;3.42;2.95;;;;;;;28.59;43.32;95630.28;5024841;28;20029;-73
2021/08/14 01:43:55;;;;;;;3.75;3.00;;;;;;;28.59;42.62;95633.03;5024674;28;20032;-74
2021/08/14 01:46:21;;;;;;;3.17;2.88;;;;;;;28.59;43.06;95624.78;5023652;28;20120;-75
2021/08/14 01:48:46;;;;;;;3.28;2.70;;;;;;;28.51;43.42;95626.69;5025700;28;20112;-74
2021/08/14 01:51:12;;;;;;;3.53;3.00;;;;;;;28.56;43.01;95617.59;5024430;28;20033;-74
2021/08/14 01:53:37;;;;;;;3.60;3.00;;;;;;;28.57;42.72;95624.59;5025847;28;20053;-74
2021/08/14 01:56:03;;;;;;;3.30;2.63;;;;;;;28.58;42.83;95626.03;5025977;28;20025;-75
2021/08/14 01:58:28;;;;;;;3.70;3.20;;;;;;;28.57;42.98;95635.56;5022162;28;20040;-75
2021/08/14 02:00:54;;;;;;;3.20;2.67;;;;;;;28.56;43.27;95628.59;5023033;28;20052;-76
2021/08/14 02:03:19;;;;;;;4.25;3.20;;;;;;;28.57;42.59;95624.59;5024253;28;20025;-73
2021/08/14 02:05:45;;;;;;;3.20;2.83;;;;;;;28.58;42.98;95620.53;5024336;28;20017;-73
2021/08/14 02:08:11;;;;;;;3.10;2.78;;;;;;;28.58;42.61;95620.53;5025283;28;20040;-74
2021/08/14 02:10:36;;;;;;;3.60;2.90;;;;;;;28.58;42.95;95626.03;5025487;28;20036;-75
2021/08/14 02:13:02;;;;;;;3.30;2.92;;;;;;;28.57;43.38;95619.09;5040617;28;20060;-74
2021/08/14 02:15:27;;;;;;;3.15;2.83;;;;;;;28.58;43.02;95617.78;5025597;28;20017;-75
2021/08/14 02:17:53;;;;;;;3.50;3.15;;;;;;;28.57;43.01;95619.09;5024760;28;20424;-74
2021/08/14 02:20:18;;;;;;;3.03;2.60;;;;;;;28.58;42.85;95620.53;5023848;28;20018;-76
2021/08/14 02:22:44;;;;;;;3.60;3.15;;;;;;;28.56;43.53;95620.34;5022263;28;20025;-74
2021/08/14 02:25:09;;;;;;;3.38;3.03;;;;;;;28.57;43.39;95611.56;5024445;28;20036;-75
2021/08/14 02:27:35;;;;;;;3.83;3.03;;;;;;;28.58;42.98;95615.06;5024631;28;20017;-75
2021/08/14 02:30:00;;;;;;;3.55;2.80;;;;;;;28.57;42.96;95613.59;5024919;28;20033;-74
2021/08/14 02:32:26;;;;;;;3.80;3.00;;;;;;;28.57;42.85;95619.81;5040704;28;20037;-73
2021/08/14 02:34:51;;;;;;;3.60;2.83;;;;;;;28.58;42.75;95607.56;5025035;28;20033;-74
2021/08/14 02:37:17;;;;;;;3.40;2.85;;;;;;;28.56;42.86;95617.59;5040708;28;20369;-74
2021/08/14 02:39:42;;;;;;;3.33;2.83;;;;;;;28.58;43.38;95609.56;5021383;28;20098;-74
2021/08/14 02:42:08;;;;;;;2.95;2.63;;;;;;;28.57;42.94;95624.59;5023752;28;20029;-74
2021/08/14 02:44:33;;;;;;;3.50;2.90;;;;;;;28.55;43.52;95621.59;5024216;28;20027;-75
2021/08/14 02:46:59;;;;;;;3.50;3.20;;;;;;;28.58;43.05;95626.81;5024634;28;20052;-76
2021/08/14 02:49:24;;;;;;;3.28;2.90;;;;;;;28.58;42.79;95631.53;5025053;28;20021;-75
2021/08/14 02:51:50;;;;;;;4.18;2.97;;;;;;;28.59;43.19;95630.28;5025176;28;20033;-75
2021/08/14 02:54:15;;;;;;;3.95;3.20;;;;;;;28.58;43.51;95631.53;5024900;28;20091;-75
2021/08/14 02:56:40;;;;;;;3.25;2.83;;;;;;;28.56;43.37;95640.31;5023975;28;20037;-75
2021/08/14 02:59:06;;;;;;;3.10;2.70;;;;;;;28.56;43.45;95628.59;5023743;28;20523;-75
2021/08/14 03:01:31;;;;;;;3.70;2.97;;;;;;;28.54;42.78;95647.63;5024502;28;20045;-75
2021/08/14 03:03:57;;;;;;;3.10;2.70;;;;;;;28.56;43.44;95645.09;5021898;28;20029;-75
2021/08/14 03:06:24;;;;;;;2.97;2.60;;;;;;;28.56;43.45;95645.09;5023761;28;20037;-75
2021/08/14 03:08:49;;;;;;;3.75;2.70;;;;;;;28.54;43.70;95639.38;5022581;28;20143;-75
2021/08/14 03:11:14;;;;;;;3.47;2.78;;;;;;;28.55;42.88;95643.59;5024962;28;20408;-74
2021/08/14 03:13:40;;;;;;;4.00;3.33;;;;;;;28.54;43.13;95656.59;5023492;28;20702;-76
2021/08/14 03:16:05;;;;;;;4.07;3.33;;;;;;;28.56;43.54;95650.56;5024141;28;20033;-75
2021/08/14 03:18:31;;;;;;;3.22;2.92;;;;;;;28.56;43.00;95664.31;5022482;28;20587;-75
2021/08/14 03:20:56;;;;;;;3.60;3.10;;;;;;;28.55;43.48;95665.56;5023572;28;20730;-75
2021/08/14 03:23:22;;;;;;;3.35;2.80;;;;;;;28.54;43.17;95669.63;5018823;28;20033;-75
2021/08/14 03:25:47;;;;;;;3.65;3.25;;;;;;;28.54;43.44;95669.63;5025227;28;20040;-75
2021/08/14 03:28:12;;;;;;;3.50;2.63;;;;;;;28.53;43.68;95662.63;5022375;28;20017;-75
2021/08/14 03:30:38;;;;;;;3.30;2.72;;;;;;;28.53;43.49;95662.63;5038832;28;20029;-75
2021/08/14 03:33:04;;;;;;;3.40;2.92;;;;;;;28.53;43.55;95679.13;5027045;28;20013;-75
2021/08/14 03:35:29;;;;;;;3.28;2.80;;;;;;;28.52;43.58;95672.13;5023671;28;20033;-75
2021/08/14 03:37:55;;;;;;;3.35;2.83;;;;;;;28.52;43.84;95683.88;5022410;28;20052;-75
2021/08/14 03:40:20;;;;;;;3.10;2.78;;;;;;;28.52;43.57;95683.13;5027899;28;20040;-75
2021/08/14 03:42:46;;;;;;;3.35;2.60;;;;;;;28.52;43.84;95683.13;5025815;28;20030;-75
2021/08/14 03:45:11;;;;;;;3.50;2.97;;;;;;;28.51;42.97;95687.16;5021646;28;20038;-76
2021/08/14 03:47:46;;;;;;;2.75;2.42;;;;;;;28.53;43.71;95684.63;5024002;28;20033;-74
2021/08/14 03:50:11;;;;;;;3.95;2.67;;;;;;;28.53;43.04;95690.09;5026220;28;20499;-75
2021/08/14 03:52:37;;;;;;;3.42;2.85;;;;;;;28.53;43.16;95690.09;5039758;28;20033;-75
2021/08/14 03:55:03;;;;;;;3.55;2.90;;;;;;;28.54;43.81;95691.59;5028507;28;20102;-75
2021/08/14 03:57:29;;;;;;;3.42;3.13;;;;;;;28.54;43.11;95691.59;5023730;28;20043;-75
2021/08/14 03:59:54;;;;;;;3.30;2.90;;;;;;;28.50;43.81;95696.66;5021698;28;20021;-75
2021/08/14 04:02:20;;;;;;;3.17;2.60;;;;;;;28.54;43.43;95708.09;5038680;28;20052;-74
2021/08/14 04:04:46;;;;;;;3.33;3.00;;;;;;;28.48;43.62;95705.44;5026035;28;20099;-74
2021/08/14 04:07:11;;;;;;;3.60;2.70;;;;;;;28.53;43.25;95706.59;5026631;28;20095;-75
2021/08/14 04:09:36;;;;;;;3.28;2.70;;;;;;;28.54;43.22;95703.31;5026045;28;20033;-74
2021/08/14 04:12:02;;;;;;;3.42;2.92;;;;;;;28.51;43.14;95709.16;5026302;28;20037;-75
2021/08/14 04:14:28;;;;;;;3.83;3.42;;;;;;;28.56;43.42;95705.53;5027627;28;20017;-75
2021/08/14 04:16:53;;;;;;;3.65;2.70;;;;;;;28.57;43.10;95713.28;5025089;28;20044;-74
2021/08/14 04:19:19;;;;;;;3.42;2.92;;;;;;;28.58;43.79;95714.00;5027338;28;20173;-74
2021/08/14 04:21:45;;;;;;;3.35;2.88;;;;;;;28.58;43.89;95714.00;5026943;28;20033;-74
2021/08/14 04:24:11;;;;;;;3.08;2.65;;;;;;;28.54;43.34;95713.59;5024535;28;20052;-74
2021/08/14 04:26:36;;;;;;;3.53;2.88;;;;;;;28.59;43.69;95715.50;5009416;28;20123;-76
2021/08/14 04:29:02;;;;;;;3.72;3.05;;;;;;;28.58;42.97;95714.00;5026475;28;20040;-75
2021/08/14 04:31:27;;;;;;;3.55;2.83;;;;;;;28.58;43.69;95714.75;5026157;28;20492;-75
2021/08/14 04:34:11;;;;;;;2.95;2.58;;;;;;;28.60;43.52;95712.22;5026944;28;20033;-74
2021/08/14 04:36:37;;;;;;;3.33;2.80;;;;;;;28.60;43.80;95706.72;5009837;28;20453;-74
2021/08/14 04:39:02;;;;;;;3.03;2.70;;;;;;;28.59;43.89;95704.50;5027226;28;20033;-75
2021/08/14 04:41:28;;;;;;;3.70;2.63;;;;;;;28.61;43.64;95712.94;5023727;28;20037;-74
2021/08/14 04:43:53;;;;;;;3.20;2.83;;;;;;;28.62;43.64;95697.94;5026579;28;20040;-73
2021/08/14 04:46:19;;;;;;;3.00;2.50;;;;;;;28.60;43.22;95700.50;5024927;28;20033;-75
2021/08/14 04:48:44;;;;;;;3.30;2.63;;;;;;;28.62;43.13;95714.44;5026853;28;20025;-74
2021/08/14 04:51:10;;;;;;;3.10;2.72;;;;;;;28.62;43.56;95703.44;5026010;28;20083;-75
2021/08/14 04:53:35;;;;;;;3.30;2.80;;;;;;;28.63;43.34;95704.94;5026836;28;20144;-75
2021/08/14 04:56:01;;;;;;;2.92;2.50;;;;;;;28.63;43.21;95694.66;5025614;28;20037;-75
2021/08/14 04:58:26;;;;;;;3.72;3.03;;;;;;;28.62;42.90;95697.94;5025252;28;20029;-75
2021/08/14 05:00:51;;;;;;;3.30;2.78;;;;;;;28.61;43.63;95696.44;5024984;28;20412;-75
2021/08/14 05:03:17;;;;;;;3.10;2.70;;;;;;;28.62;43.21;95697.94;5026444;28;20025;-75
2021/08/14 05:05:43;;;;;;;3.25;2.75;;;;;;;28.62;43.60;95701.44;5024271;28;20030;-76
2021/08/14 05:08:09;;;;;;;3.13;2.72;;;;;;;28.63;43.13;95699.44;5025381;28;20048;-74
2021/08/14 05:10:34;;;;;;;3.10;2.65;;;;;;;28.63;43.60;95704.94;5024335;28;20029;-76
2021/08/14 05:13:00;;;;;;;3.17;2.80;;;;;;;28.63;43.10;95704.94;5008953;28;20052;-74
2021/08/14 05:15:25;;;;;;;3.55;2.53;;;;;;;28.64;43.62;95700.91;5026789;28;20030;-74
2021/08/14 05:17:51;;;;;;;3.15;2.60;;;;;;;28.65;43.09;95705.13;5025287;28;20021;-74
2021/08/14 05:20:16;;;;;;;2.83;2.28;;;;;;;28.66;42.98;95703.88;5025261;28;20037;-75
2021/08/14 05:22:41;;;;;;;3.47;2.65;;;;;;;28.65;43.13;95705.13;5025510;28;20111;-75
2021/08/14 05:25:07;;;;;;;3.08;2.78;;;;;;;28.66;43.33;95703.88;5025133;28;20037;-74
2021/08/14 05:27:33;;;;;;;3.03;2.40;;;;;;;28.68;43.72;95706.84;5026121;28;20033;-74
2021/08/14 05:29:58;;;;;;;3.40;2.50;;;;;;;28.62;43.75;95704.16;5026235;28;20052;-75
2021/08/14 05:32:24;;;;;;;3.08;2.78;;;;;;;28.68;43.13;95707.59;5022940;28;20081;-74
2021/08/14 05:34:49;;;;;;;2.80;2.50;;;;;;;28.67;43.52;95706.13;5024468;28;20431;-75
2021/08/14 05:37:15;;;;;;;3.30;2.80;;;;;;;28.69;43.09;95702.84;5041287;28;20041;-75
2021/08/14 05:39:41;;;;;;;3.30;2.72;;;;;;;28.71;43.51;95716.81;5024848;28;20044;-75
2021/08/14 05:42:07;;;;;;;3.53;2.78;;;;;;;28.70;43.07;95704.31;5024182;28;20080;-73
2021/08/14 05:44:32;;;;;;;3.10;2.72;;;;;;;28.71;43.01;95705.81;5026351;28;20620;-74
2021/08/14 05:46:58;;;;;;;2.90;2.45;;;;;;;28.72;43.58;95701.78;5023587;28;20033;-75
2021/08/14 05:49:23;;;;;;;3.25;2.60;;;;;;;28.72;43.49;95707.28;5025592;28;20033;-75
2021/08/14 05:51:49;;;;;;;2.75;2.50;;;;;;;28.72;42.85;95714.25;5025264;28;20052;-74
2021/08/14 05:54:15;;;;;;;3.00;2.70;;;;;;;28.72;43.17;95703.25;5026170;28;20392;-74
2021/08/14 05:56:41;;;;;;;3.00;2.60;;;;;;;28.72;43.33;95703.25;5022906;28;20040;-75
2021/08/14 05:59:06;;;;;;;3.50;2.40;;;;;;;28.73;42.81;95710.25;5026654;28;20022;-75
2021/08/14 06:01:32;;;;;;;3.72;2.90;;;;;;;28.73;43.59;95715.75;5023313;28;20063;-74
2021/08/14 06:03:57;;;;;;;2.83;2.50;;;;;;;28.72;42.77;95708.75;5026283;28;20440;-74
2021/08/14 06:06:23;;;;;;;2.95;2.60;;;;;;;28.73;43.29;95715.75;5024774;28;20037;-74
2021/08/14 06:08:48;;;;;;;3.15;2.70;;;;;;;28.74;42.96;95710.97;5008036;28;20033;-74
2021/08/14 06:11:13;;;;;;;3.00;2.70;;;;;;;28.71;43.19;95700.31;5024862;28;20025;-75
2021/08/14 06:13:39;;;;;;;3.10;2.58;;;;;;;28.74;43.49;95706.25;5026626;28;20087;-75
2021/08/14 06:16:06;;;;;;;4.28;2.83;;;;;;;28.73;43.27;95713.00;5026211;28;20029;-73
2021/08/14 06:18:31;;;;;;;3.10;2.60;;;;;;;28.72;43.63;95708.75;5025572;28;20554;-74
2021/08/14 06:20:57;;;;;;;3.22;2.67;;;;;;;28.70;43.36;95705.06;5025159;28;20033;-74
2021/08/14 06:23:22;;;;;;;3.55;2.58;;;;;;;28.76;43.54;95709.19;5039969;28;20056;-74
2021/08/14 06:25:47;;;;;;;3.70;2.85;;;;;;;28.76;43.47;95708.47;5025491;28;20036;-75
2021/08/14 06:28:14;;;;;;;2.95;2.55;;;;;;;28.76;42.78;95709.19;5023078;28;20479;-75
2021/08/14 06:30:39;;;;;;;3.03;2.35;;;;;;;28.71;43.43;95705.81;5022868;28;20467;-75
2021/08/14 06:33:04;;;;;;;3.30;2.63;;;;;;;28.81;43.43;95700.09;5040019;28;20036;-75
2021/08/14 06:35:30;;;;;;;2.67;2.33;;;;;;;28.81;43.43;95705.59;5024046;28;20029;-73
2021/08/14 06:37:55;;;;;;;3.17;2.63;;;;;;;28.87;43.12;95702.75;5025853;28;20808;-75
2021/08/14 06:40:21;;;;;;;3.38;2.63;;;;;;;28.88;43.43;95704.97;5024573;28;20567;-74
2021/08/14 06:42:46;;;;;;;3.45;2.60;;;;;;;28.82;42.68;95690.56;5025780;28;20033;-74
2021/08/14 06:45:12;;;;;;;2.90;2.60;;;;;;;28.89;43.25;95706.47;5023221;28;20427;-75
2021/08/14 06:47:38;;;;;;;3.20;2.70;;;;;;;28.91;42.93;95709.41;5020667;28;20154;-75
2021/08/14 06:50:05;;;;;;;2.83;2.50;;;;;;;28.92;42.44;95705.41;5023399;28;20091;-74
2021/08/14 06:52:30;;;;;;;2.65;2.17;;;;;;;28.93;42.80;95706.84;5024512;28;20415;-74
2021/08/14 06:54:56;;;;;;;3.00;2.70;;;;;;;28.91;42.71;95714.91;5025924;28;20030;-75
2021/08/14 06:57:21;;;;;;;2.83;2.45;;;;;;;28.96;42.99;95705.06;5023789;28;20449;-75
2021/08/14 06:59:46;;;;;;;3.33;2.83;;;;;;;28.94;42.94;95702.84;5024526;28;20115;-75
2021/08/14 07:02:14;;;;;;;2.60;2.40;;;;;;;28.96;43.29;95705.78;5025165;28;20493;-75
2021/08/14 07:04:40;;;;;;;3.03;2.63;;;;;;;28.95;42.63;95709.84;5004058;28;20072;-74
2021/08/14 07:07:05;;;;;;;3.20;2.50;;;;;;;28.98;43.00;95692.25;5044628;28;20036;-75
2021/08/14 07:09:31;;;;;;;2.85;2.53;;;;;;;28.97;42.74;95696.28;5028804;28;20088;-74
2021/08/14 07:11:56;;;;;;;3.38;2.63;;;;;;;28.98;43.30;95697.00;5029720;28;20056;-74
2021/08/14 07:14:22;;;;;;;2.78;2.40;;;;;;;28.98;43.03;95697.75;5029534;28;20025;-72
2021/08/14 07:16:47;;;;;;;2.90;2.20;;;;;;;28.94;42.53;95691.13;5028659;28;20030;-74
2021/08/14 07:19:13;;;;;;;3.00;2.47;;;;;;;28.98;43.15;95692.25;5043510;28;20029;-73
2021/08/14 07:21:38;;;;;;;2.63;2.25;;;;;;;29.00;42.83;95695.22;5026456;28;20028;-75
2021/08/14 07:24:04;;;;;;;3.53;2.60;;;;;;;29.01;42.79;95696.69;5026823;28;20075;-76
2021/08/14 07:26:29;;;;;;;3.53;2.55;;;;;;;29.00;42.51;95695.22;5026212;28;20055;-75
2021/08/14 07:28:55;;;;;;;3.10;2.40;;;;;;;29.01;43.30;95707.69;5029785;28;20052;-75
2021/08/14 07:31:21;;;;;;;3.38;2.50;;;;;;;29.01;42.76;95685.69;5028415;28;20610;-74
2021/08/14 07:33:46;;;;;;;2.70;2.40;;;;;;;29.02;43.20;95692.69;5044953;28;20021;-75
2021/08/14 07:36:11;;;;;;;3.28;2.50;;;;;;;29.04;42.51;95683.91;5027718;28;20544;-75
2021/08/14 07:38:37;;;;;;;2.55;2.20;;;;;;;29.06;42.78;95698.59;5028363;28;20461;-75
2021/08/14 07:41:02;;;;;;;3.13;2.35;;;;;;;29.08;43.04;95684.31;5024413;28;20037;-75
2021/08/14 07:43:28;;;;;;;4.25;2.50;;;;;;;29.09;42.31;95686.53;5028696;28;20499;-75
2021/08/14 07:45:53;;;;;;;2.90;2.20;;;;;;;29.08;42.62;95696.06;5025540;28;20530;-75
2021/08/14 07:48:19;;;;;;;2.67;2.15;;;;;;;29.08;42.99;95690.56;5029305;28;20415;-75
2021/08/14 07:50:44;;;;;;;3.17;2.42;;;;;;;29.09;42.81;95681.03;5028553;28;20400;-75
2021/08/14 07:53:10;;;;;;;3.10;2.60;;;;;;;29.10;42.76;95677.00;5027488;28;20498;-75
2021/08/14 07:55:35;;;;;;;2.78;2.35;;;;;;;29.11;42.21;95683.25;5026161;28;20037;-73
2021/08/14 07:58:01;;;;;;;3.00;2.50;;;;;;;29.13;42.51;95681.44;5028767;28;20112;-75
2021/08/14 08:00:27;;;;;;;3.45;2.58;;;;;;;29.14;42.25;95682.19;5009645;28;20496;-74
2021/08/14 08:02:52;;;;;;;3.53;2.67;;;;;;;29.17;42.35;95676.38;5028587;28;20435;-75
2021/08/14 08:05:18;;;;;;;2.90;2.38;;;;;;;29.18;42.06;95688.84;5027921;28;20089;-75
2021/08/14 08:07:44;;;;;;;2.70;2.40;;;;;;;29.20;41.92;95686.31;5030049;28;20472;-76
2021/08/14 08:10:15;;;;;;;3.20;2.70;;;;;;;29.20;42.61;95678.06;5031162;28;20040;-76
2021/08/14 08:12:40;;;;;;;2.88;2.58;;;;;;;29.23;41.94;95671.50;5015713;28;20025;-75
2021/08/14 08:15:09;;;;;;;2.80;2.30;;;;;;;29.21;42.50;95676.78;5030457;28;20037;-75
2021/08/14 08:17:35;;;;;;;3.10;2.63;;;;;;;29.22;42.26;95667.25;5048072;28;20069;-74
2021/08/14 08:20:01;;;;;;;2.80;2.55;;;;;;;29.22;42.18;95672.75;5032099;28;20033;-75
2021/08/14 08:22:26;;;;;;;3.42;2.85;;;;;;;29.23;41.87;95668.72;5031872;28;20029;-75
2021/08/14 08:24:52;;;;;;;2.92;2.30;;;;;;;29.24;42.14;95670.25;5033197;28;20037;-75
2021/08/14 08:27:17;;;;;;;2.97;2.22;;;;;;;29.24;42.45;95667.50;5031875;28;20028;-74
2021/08/14 08:29:43;;;;;;;2.45;2.08;;;;;;;29.23;42.46;95663.22;5033490;28;20021;-75
2021/08/14 08:32:08;;;;;;;2.40;2.17;;;;;;;29.24;41.93;95664.75;5031342;28;20499;-74
2021/08/14 08:34:34;;;;;;;2.58;2.10;;;;;;;29.25;42.56;95660.72;5034089;28;20040;-73
2021/08/14 08:37:00;;;;;;;2.88;2.20;;;;;;;29.25;42.03;95663.47;5047959;28;20479;-75
2021/08/14 08:39:25;;;;;;;2.80;2.40;;;;;;;29.27;42.26;95658.19;5035094;28;20088;-76
2021/08/14 08:41:51;;;;;;;2.90;2.55;;;;;;;29.26;42.48;95651.19;5027592;28;20025;-75
2021/08/14 08:44:17;;;;;;;2.63;2.10;;;;;;;29.27;41.86;95647.19;5027697;28;20028;-75
2021/08/14 08:46:44;;;;;;;2.90;2.35;;;;;;;29.28;42.14;95654.13;5026766;28;20041;-74
2021/08/14 08:49:09;;;;;;;2.97;2.50;;;;;;;29.25;42.15;95649.69;5009626;28;20040;-75
2021/08/14 08:51:34;;;;;;;3.00;2.15;;;;;;;29.27;42.19;95658.19;5025647;28;20499;-75
2021/08/14 08:54:00;;;;;;;2.53;2.20;;;;;;;29.28;42.20;95654.13;5026077;28;20507;-76
2021/08/14 08:56:25;;;;;;;2.97;2.40;;;;;;;29.29;42.18;95650.13;5042488;28;20029;-75
2021/08/14 08:58:51;;;;;;;2.95;2.22;;;;;;;29.28;41.95;95654.13;5042834;28;20034;-75
2021/08/14 09:01:16;;;;;;;2.47;2.10;;;;;;;29.28;42.52;95648.63;5027521;28;20090;-73
2021/08/14 09:03:42;;;;;;;3.00;2.40;;;;;;;29.24;41.70;95648.25;5043709;28;20442;-73
2021/08/14 09:06:07;;;;;;;2.88;2.33;;;;;;;29.25;42.21;95644.19;5042929;28;20029;-75
2021/08/14 09:08:33;;;;;;;2.55;2.17;;;;;;;29.27;41.81;95641.69;5026824;28;20056;-74
2021/08/14 09:11:15;;;;;;;2.70;2.28;;;;;;;29.30;42.69;95646.09;5046908;28;20495;-75
2021/08/14 09:14:01;;;;;;;2.67;2.28;;;;;;;29.30;41.90;95640.59;5027796;28;20033;-74
2021/08/14 09:16:26;;;;;;;2.72;2.33;;;;;;;29.25;42.20;95628.44;5029790;28;20089;-75
2021/08/14 09:19:01;;;;;;;2.65;2.35;;;;;;;29.30;41.99;95635.09;5020701;28;20033;-74
2021/08/14 09:21:32;;;;;;;2.75;2.35;;;;;;;29.31;42.36;95631.06;5008675;28;20123;-75
2021/08/14 09:24:00;;;;;;;2.58;2.15;;;;;;;29.31;42.06;95633.81;5022589;28;20033;-75
2021/08/14 09:26:26;;;;;;;2.83;2.20;;;;;;;29.31;42.53;95636.56;5025165;28;20029;-75
2021/08/14 09:29:01;;;;;;;2.50;2.22;;;;;;;29.31;41.86;95642.81;5024563;28;20025;-75
2021/08/14 09:31:27;;;;;;;2.70;2.20;;;;;;;29.31;41.90;95625.56;5024953;28;20025;-74
2021/08/14 09:33:52;;;;;;;2.72;2.38;;;;;;;29.32;42.12;95621.53;5025178;28;20079;-76
2021/08/14 09:36:18;;;;;;;2.90;2.58;;;;;;;29.33;42.21;95628.53;5024896;28;20036;-74
2021/08/14 09:38:43;;;;;;;2.85;2.40;;;;;;;29.34;41.99;95616.22;5007234;28;20752;-76
2021/08/14 09:41:13;;;;;;;2.65;2.13;;;;;;;29.36;42.55;95616.47;5026011;28;20044;-75
2021/08/14 09:43:38;;;;;;;2.38;2.03;;;;;;;29.36;42.40;95616.47;5025156;28;20064;-75
2021/08/14 09:46:04;;;;;;;2.70;2.25;;;;;;;29.36;42.15;95617.19;5026093;28;20029;-75
2021/08/14 09:48:31;;;;;;;3.08;2.63;;;;;;;29.37;42.35;95606.91;5024007;28;20866;-76
2021/08/14 09:50:56;;;;;;;3.10;2.45;;;;;;;29.37;42.44;95606.91;5024544;28;20203;-76
2021/08/14 09:53:23;;;;;;;2.60;2.40;;;;;;;29.33;42.12;95595.50;5040538;28;20022;-77
2021/08/14 09:55:50;;;;;;;2.75;2.50;;;;;;;29.36;42.53;95597.91;5023311;28;20033;-75
2021/08/14 09:58:24;;;;;;;2.65;2.10;;;;;;;29.39;42.37;95593.38;5025920;28;20079;-76
2021/08/14 10:00:49;;;;;;;2.55;2.13;;;;;;;29.38;41.78;95597.38;5028477;28;20091;-74
2021/08/14 10:03:16;;;;;;;2.55;2.20;;;;;;;29.38;41.68;95591.88;5026180;28;20033;-76
2021/08/14 10:05:42;;;;;;;3.33;2.60;;;;;;;29.38;42.37;95589.84;5023520;28;20038;-76
2021/08/14 10:08:07;;;;;;;2.92;2.38;;;;;;;29.40;42.38;95578.31;5024095;28;20033;-74
2021/08/14 10:10:32;;;;;;;3.03;2.40;;;;;;;29.40;41.62;95583.81;5023866;28;20420;-76
2021/08/14 10:12:58;;;;;;;2.47;2.13;;;;;;;29.42;41.72;95581.28;5025711;28;20030;-76
2021/08/14 10:15:24;;;;;;;2.67;2.40;;;;;;;29.44;41.98;95573.22;5025604;28;20091;-75
2021/08/14 10:17:49;;;;;;;2.92;2.30;;;;;;;29.41;41.88;95563.28;5020618;28;20029;-75
2021/08/14 10:20:15;;;;;;;2.60;2.15;;;;;;;29.45;42.26;95577.47;5020962;28;20041;-75
2021/08/14 10:22:40;;;;;;;2.67;2.13;;;;;;;29.45;41.95;95574.72;5019393;28;20108;-75
2021/08/14 10:25:06;;;;;;;2.50;2.20;;;;;;;29.48;42.18;95568.13;5023926;28;20036;-75
2021/08/14 10:27:54;;;;;;;2.50;1.95;;;;;;;29.50;41.73;95560.06;5006118;28;20029;-76
2021/08/14 10:30:49;;;;;;;2.45;2.20;;;;;;;29.50;41.79;95565.59;5024137;28;20088;-74
2021/08/14 10:33:26;;;;;;;2.92;2.45;;;;;;;29.50;42.30;95568.31;5023922;28;20030;-74
2021/08/14 10:35:52;;;;;;;3.17;2.30;;;;;;;29.50;42.15;95566.31;5027682;28;20060;-74
2021/08/14 10:38:38;;;;;;;3.08;2.45;;;;;;;29.49;41.94;95553.09;5029185;28;20048;-76
2021/08/14 10:41:03;;;;;;;2.40;2.17;;;;;;;29.51;41.38;95550.56;5029654;28;20116;-75
2021/08/14 10:43:54;;;;;;;2.45;2.05;;;;;;;29.55;42.24;95550.94;5029260;28;20052;-75
2021/08/14 10:46:34;;;;;;;3.03;2.53;;;;;;;29.53;41.91;95553.50;5029263;28;20060;-76
2021/08/14 10:49:00;;;;;;;2.70;2.35;;;;;;;29.55;41.57;95545.44;5027148;28;20033;-75
2021/08/14 10:51:47;;;;;;;2.55;2.28;;;;;;;29.57;42.07;95554.63;5029370;28;20021;-75
2021/08/14 10:54:29;;;;;;;2.70;2.08;;;;;;;29.60;41.96;95541.81;5027367;28;20033;-76
2021/08/14 10:56:55;;;;;;;2.75;2.42;;;;;;;29.61;42.14;95535.03;5029034;28;20029;-75
2021/08/14 10:59:37;;;;;;;2.60;2.30;;;;;;;29.60;41.93;95531.53;5028029;28;20025;-76
2021/08/14 11:02:09;;;;;;;2.63;2.15;;;;;;;29.60;42.00;95536.31;5028804;28;20637;-75
2021/08/14 11:04:43;;;;;;;2.75;2.35;;;;;;;29.60;41.58;95536.31;5028457;28;20045;-75
2021/08/14 11:07:20;;;;;;;2.47;2.25;;;;;;;29.62;42.03;95537.22;5027555;28;20128;-75
2021/08/14 11:09:46;;;;;;;2.22;1.90;;;;;;;29.64;41.56;95531.19;5028864;28;20029;-75
2021/08/14 11:12:12;;;;;;;2.78;2.45;;;;;;;29.67;41.65;95530.13;5028275;28;20025;-75
2021/08/14 11:14:42;;;;;;;2.92;2.25;;;;;;;29.66;41.69;95523.16;5028463;28;20029;-75
2021/08/14 11:17:07;;;;;;;2.97;2.35;;;;;;;29.67;41.56;95524.59;5028843;28;20047;-75
2021/08/14 11:19:43;;;;;;;2.33;2.10;;;;;;;29.69;41.30;95518.03;5027707;28;20056;-75
2021/08/14 11:22:28;;;;;;;2.55;2.08;;;;;;;29.69;41.72;95512.50;5028270;28;20515;-76
2021/08/14 11:24:54;;;;;;;2.90;2.30;;;;;;;29.71;41.34;95514.72;5027293;28;20491;-76
2021/08/14 11:27:28;;;;;;;2.67;2.10;;;;;;;29.71;41.90;95515.47;5027895;28;20032;-75
2021/08/14 11:30:01;;;;;;;2.50;2.20;;;;;;;29.71;41.59;95512.69;5028198;28;20033;-75
2021/08/14 11:32:33;;;;;;;2.50;2.03;;;;;;;29.70;41.70;95519.50;5024364;28;20039;-74